Аэропорт: Магнитогорск. Магнитогорск

ICAO: USCM

METAR:
2024-07-24 14:30:00
USCM 241430Z 09001MPS 9999 BKN040CB 18/13 Q1006 R36/090060 NOSIG RMK QFE716
TAF:
Информация по данной станции не доступна